This is the latest recevied weather packets stored in our database for station/object AK4FD. If no packets are shown the sender has not sent any weather packets the latest 1 day(s).
| Time | Temp. | Humidity | Pressure | Rain* | Wind** | Luminosity | Snow |
|---|---|---|---|---|---|---|---|
| 1836274639 | 18.33° C | 90% | 1019.2 hPa | 0 mm | 0 m/s | 0 W/m² | - |
| 1836274492 | 18.33° C | 89% | 1019.3 hPa | 0 mm | 0 m/s | 0 W/m² | - |
| 1836274336 | 18.33° C | 90% | 1019.2 hPa | 0 mm | 0 m/s | 0 W/m² | - |
| 1836274190 | 18.33° C | 90% | 1019.1 hPa | 0 mm | 0 m/s | 0 W/m² | - |
| 1836274035 | 18.33° C | 90% | 1019.1 hPa | 0 mm | 0 m/s | 0 W/m² | - |
| 1778032704 | 17.78° C | 60% | 1014.9 hPa | 0 mm | 0.45 m/s, 78° | 0 W/m² | - |
| 1778032401 | 18.33° C | 61% | 1014.8 hPa | 0 mm | 0 m/s | 0 W/m² | - |
| 1778032098 | 18.33° C | 60% | 1014.8 hPa | 0 mm | 0.45 m/s, 92° | 0 W/m² | - |
| 1778031795 | 18.33° C | 62% | 1014.6 hPa | 0 mm | 0 m/s | 0 W/m² | - |
| 1778031492 | 18.89° C | 59% | 1014.7 hPa | 0 mm | 0.45 m/s, 99° | 0 W/m² | - |
| 1778031189 | 18.89° C | 60% | 1014.8 hPa | 0 mm | 0.45 m/s, 78° | 0 W/m² | - |
| 1778030885 | 18.89° C | 57% | 1014.8 hPa | 0 mm | 0.45 m/s, 94° | 0 W/m² | - |
| 1778030582 | 18.89° C | 55% | 1014.6 hPa | 0 mm | 0 m/s | 0 W/m² | - |
| 1778030279 | 19.44° C | 55% | 1014.7 hPa | 0 mm | 0 m/s | 0 W/m² | - |
| 1778029976 | 19.44° C | 54% | 1014.5 hPa | 0 mm | 0 m/s | 0 W/m² | - |
| 1778029674 | 19.44° C | 53% | 1014.4 hPa | 0 mm | 0 m/s | 0 W/m² | - |
| 1778029371 | 20° C | 53% | 1014.4 hPa | 0 mm | 0 m/s | 0 W/m² | - |
| 1778029068 | 20° C | 54% | 1014.4 hPa | 0 mm | 0 m/s | 0 W/m² | - |
| 1778028765 | 20° C | 53% | 1014.1 hPa | 0 mm | 0 m/s | 0 W/m² | - |
| 1778028460 | 20.56° C | 52% | 1014.3 hPa | 0 mm | 0.45 m/s, 76° | 0 W/m² | - |
| 1778028159 | 20.56° C | 50% | 1014.3 hPa | 0 mm | 0.45 m/s, 73° | 0 W/m² | - |
| 1778027854 | 21.11° C | 50% | 1014.4 hPa | 0 mm | 0.45 m/s, 106° | 0 W/m² | - |
| 1778027551 | 21.11° C | 50% | 1014.3 hPa | 0 mm | 0 m/s | 0 W/m² | - |
| 1778027247 | 21.67° C | 47% | 1014.4 hPa | 0 mm | 0 m/s | 0 W/m² | - |
| 1778026943 | 21.67° C | 47% | 1014.3 hPa | 0 mm | 0 m/s | 0 W/m² | - |
* Rain latest hour (hover to see other rain measurements)
** Current wind speed in m/s (hover to see current wind gust speed)